Fagelgracht — PBST — position and weather

sailwx.info

Track history (hours):
 
Tides and Currents Weather Stations Pressure Air Temp Water Temp Dewpoint Dewpoint Depression Visibility Wind Speed Wind Dir Waves Ship Positions

Fagelgracht

Last reported at 2018-Feb-10 13:28 UTC. Time now 2018-Feb-24 18:17 UTC.
Position N 36°09' W 026°06'.
Warning: this ship's position is 14 days out of date.

Length 136 m; draft 9.1 m.

Type: Ship (hazmat cat A). MMSI: 246591000.

Date/timePositionNaut miles runAvg speedWind from/ knotsBaromVisibWave heightAir tempDewpointWater temp
2018-Feb-10 13:28N 36°09' W 026°06'714.5
2018-Feb-10 13:00N 36°13' W 026°00'714.6
2018-Feb-10 12:30N 36°17' W 025°53'714.5
2018-Feb-10 12:00N 36°22' W 025°46'714.4
2018-Feb-10 11:30N 36°27' W 025°39'714.7
2018-Feb-10 11:00N 36°31' W 025°32'714.5
2018-Feb-10 10:30N 36°36' W 025°25'714.5
2018-Feb-10 10:00N 36°40' W 025°18'714.3
2018-Feb-10 09:30N 36°45' W 025°11'714.5
2018-Feb-10 09:00N 36°49' W 025°04'714.8
2018-Feb-10 08:30N 36°54' W 024°57'714.4
2018-Feb-10 08:00N 36°58' W 024°50'714.7
2018-Feb-10 07:30N 37°03' W 024°43'714.8
2018-Feb-10 07:01N 37°08' W 024°35'714.6
2018-Feb-10 06:30N 37°12' W 024°28'714.7
2018-Feb-10 06:00N 37°16' W 024°21'714.8
2018-Feb-10 05:30N 37°21' W 024°14'714.9
2018-Feb-10 05:01N 37°26' W 024°06'714.7
2018-Feb-10 04:30N 37°30' W 023°59'714.6
2018-Feb-10 04:00N 37°35' W 023°52'714.3
2018-Feb-10 03:31N 37°40' W 023°45'714.3
2018-Feb-10 03:00N 37°44' W 023°38'714.7
2018-Feb-10 02:30N 37°49' W 023°31'714.4
2018-Feb-10 01:59N 37°54' W 023°23'714.3
2018-Feb-10 01:31N 37°58' W 023°17'714.3
2018-Feb-10 01:00N 38°02' W 023°09'714.3
2018-Feb-10 00:30N 38°06' W 023°02'714.1
2018-Feb-10 00:00N 38°11' W 022°55'714.4
2018-Feb-09 23:30N 38°15' W 022°48'814.2
2018-Feb-09 22:56N 38°20' W 022°40'314.0
2018-Feb-09 22:43N 38°22' W 022°37'  
2018-Feb-06 15:08N 49°48' W 003°26'315.1
2018-Feb-06 14:56N 49°49' W 003°22'1214.7
2018-Feb-06 14:07N 49°55' W 003°06'1513.6
2018-Feb-06 13:00N 50°01' W 002°44'812.7
2018-Feb-06 12:25N 50°03' W 002°33'512.1
2018-Feb-06 12:00N 50°04' W 002°25'1111.7
2018-Feb-06 11:06N 50°07' W 002°10'111.6
2018-Feb-06 11:00N 50°08' W 002°08'812.0
2018-Feb-06 10:18N 50°10' W 001°55'412.7
2018-Feb-06 09:58N 50°11' W 001°49'1313.6
2018-Feb-06 09:00N 50°15' W 001°30'4216.2
2018-Feb-06 06:23N 50°27' W 000°26'616.2
2018-Feb-06 06:00N 50°29' W 000°17'815.9
2018-Feb-06 05:30N 50°31' W 000°05'815.7
2018-Feb-06 05:00N 50°33' E 000°07'815.4
2018-Feb-06 04:30N 50°35' E 000°19'815.1
2018-Feb-06 04:00N 50°37' E 000°30'714.5
2018-Feb-06 03:30N 50°41' E 000°40'714.1
2018-Feb-06 03:00N 50°45' E 000°49'813.9
2018-Feb-06 02:27N 50°49' E 000°59'814.0
2018-Feb-06 01:55N 50°54' E 001°09'614.1
2018-Feb-06 01:29N 50°58' E 001°16'715.2
2018-Feb-06 01:00N 51°03' E 001°25'2617.1
2018-Feb-05 23:30N 51°20' E 001°55'713.3
2018-Feb-05 23:00N 51°24' E 002°04'714.8
2018-Feb-05 22:30N 51°21' E 002°15'815.3
2018-Feb-05 22:00N 51°22' E 002°27'815.4
2018-Feb-05 21:30N 51°23' E 002°39'712.7
2018-Feb-05 20:58N 51°22' E 002°50'715.0
2018-Feb-05 20:30N 51°24' E 003°01'715.0
2018-Feb-05 20:00N 51°25' E 003°13'815.6
2018-Feb-05 19:30N 51°25' E 003°25'816.0
2018-Feb-05 19:00N 51°25' E 003°38'714.8
2018-Feb-05 18:30N 51°21' E 003°48'612.5
2018-Feb-05 18:00N 51°24' E 003°57'3 6.4
2018-Feb-05 17:30N 51°24' E 004°02'4 8.7
2018-Feb-05 17:00N 51°22' E 004°09'4 7.8
2018-Feb-05 16:30N 51°21' E 004°15'2 3.7
2018-Feb-05 16:00N 51°21' E 004°17'0 0.1
2018-Feb-05 15:30N 51°21' E 004°17'5 4.6
2018-Feb-05 14:30N 51°17' E 004°21'1 1.6
2018-Feb-05 14:00N 51°17' E 004°23'0 0.0
2018-Feb-05 13:30N 51°17' E 004°23'0 0.0
2018-Feb-05 13:00N 51°17' E 004°23'0 0.0
2018-Feb-05 12:30N 51°17' E 004°23'0 0.0
2018-Feb-05 12:00N 51°17' E 004°23'0 0.0
2018-Feb-05 11:30N 51°17' E 004°23'0 0.0
2018-Feb-05 10:57N 51°17' E 004°23'0 0.0
2018-Feb-05 10:30N 51°17' E 004°23'0 0.0
2018-Feb-05 10:00N 51°17' E 004°23'0 0.0
2018-Feb-05 09:30N 51°17' E 004°23'0 0.0
2018-Feb-05 09:00N 51°17' E 004°23'0 0.0
2018-Feb-05 08:30N 51°17' E 004°23'0 0.0
2018-Feb-05 08:00N 51°17' E 004°23'0 0.0
2018-Feb-05 07:30N 51°17' E 004°23'0 0.0
2018-Feb-05 06:57N 51°17' E 004°23'0 0.0
2018-Feb-05 06:30N 51°17' E 004°23'0 0.0
2018-Feb-05 05:30N 51°17' E 004°23'0 0.0
2018-Feb-05 05:00N 51°17' E 004°23'0 0.0
2018-Feb-05 04:30N 51°17' E 004°23'0 0.0
2018-Feb-05 04:00N 51°17' E 004°23'0 0.0
2018-Feb-05 03:30N 51°17' E 004°23'0 0.0
2018-Feb-05 03:00N 51°17' E 004°23'0 0.0
2018-Feb-05 02:30N 51°17' E 004°23'0 0.0
2018-Feb-05 02:00N 51°17' E 004°23'0 0.0
2018-Feb-05 01:30N 51°17' E 004°23'0 0.0
2018-Feb-05 01:00N 51°17' E 004°23'0 0.0
2018-Feb-05 00:27N 51°17' E 004°23'0 0.0
2018-Feb-04 23:57N 51°17' E 004°23'0 0.0
2018-Feb-04 23:30N 51°17' E 004°23'0 0.0
2018-Feb-04 23:00N 51°17' E 004°23'0 0.0
2018-Feb-04 22:30N 51°17' E 004°23'0 0.0
2018-Feb-04 22:00N 51°17' E 004°23'0 0.0
2018-Feb-04 21:30N 51°17' E 004°23'0 0.0
2018-Feb-04 21:00N 51°17' E 004°23'0 0.0
2018-Feb-04 20:00N 51°17' E 004°23'0 0.0
2018-Feb-04 19:30N 51°17' E 004°23'0 0.0
2018-Feb-04 18:57N 51°17' E 004°23'0 0.0
2018-Feb-04 18:30N 51°17' E 004°23'0 0.0
2018-Feb-04 17:57N 51°17' E 004°23'0 0.0
2018-Feb-04 17:30N 51°17' E 004°23'0 0.0
2018-Feb-04 15:30N 51°17' E 004°23'0 0.0
2018-Feb-04 15:00N 51°17' E 004°23'0 0.1
2018-Feb-04 14:27N 51°17' E 004°23'0 0.4
2018-Feb-04 14:00N 51°17' E 004°23'0 0.0
2018-Feb-04 13:30N 51°17' E 004°23'0 0.0
2018-Feb-04 13:00N 51°17' E 004°23'0 0.0
2018-Feb-04 12:30N 51°17' E 004°23'0 0.0
2018-Feb-04 12:00N 51°17' E 004°23'0 0.0
2018-Feb-04 11:30N 51°17' E 004°23'0 0.0
2018-Feb-04 10:00N 51°17' E 004°23'0 0.0
2018-Feb-04 09:00N 51°17' E 004°23'0 0.0
2018-Feb-04 08:30N 51°17' E 004°23'0 0.0
2018-Feb-04 08:00N 51°17' E 004°23'0 0.0
2018-Feb-04 07:30N 51°17' E 004°23'0 0.0
2018-Feb-04 07:00N 51°17' E 004°23'0 0.0
2018-Feb-04 06:30N 51°17' E 004°23'0 0.0
2018-Feb-04 06:00N 51°17' E 004°23'0 0.0
2018-Feb-04 05:27N 51°17' E 004°23'0 0.0
2018-Feb-04 05:00N 51°17' E 004°23'0 0.0
2018-Feb-04 04:30N 51°17' E 004°23'0 0.0
2018-Feb-04 04:00N 51°17' E 004°23'0 0.0
2018-Feb-04 03:27N 51°17' E 004°23'0 0.0
2018-Feb-04 03:00N 51°17' E 004°23'0 0.0
2018-Feb-04 02:30N 51°17' E 004°23'0 0.0
2018-Feb-04 01:54N 51°17' E 004°23'0 0.0
2018-Feb-04 01:30N 51°17' E 004°23'0 0.0
2018-Feb-04 01:00N 51°17' E 004°23'0 0.0
2018-Feb-04 00:27N 51°17' E 004°23'0 0.0
2018-Feb-04 00:00N 51°17' E 004°23'0 0.0
2018-Feb-03 23:30N 51°17' E 004°23'0 0.0
2018-Feb-03 23:00N 51°17' E 004°23'0 0.0
2018-Feb-03 22:30N 51°17' E 004°23'0 0.0
2018-Feb-03 22:00N 51°17' E 004°23'0 0.0
2018-Feb-03 21:30N 51°17' E 004°23'0 0.0
2018-Feb-03 21:00N 51°17' E 004°23'0 0.0
2018-Feb-03 20:30N 51°17' E 004°23'0 0.0
2018-Feb-03 20:00N 51°17' E 004°23'0 0.0
2018-Feb-03 18:30N 51°17' E 004°23'0 0.0
2018-Feb-03 18:00N 51°17' E 004°23'0 0.0
2018-Feb-03 17:30N 51°17' E 004°23'0 0.0
2018-Feb-03 16:57N 51°17' E 004°23'0 0.0
2018-Feb-03 16:00N 51°17' E 004°23'0 0.0
2018-Feb-03 15:30N 51°17' E 004°23'0 0.0
2018-Feb-03 15:00N 51°17' E 004°23'0 0.0
2018-Feb-03 14:30N 51°17' E 004°23'0 0.0
2018-Feb-03 14:00N 51°17' E 004°23'0 0.0
2018-Feb-03 13:30N 51°17' E 004°23'0 0.0
2018-Feb-03 13:00N 51°17' E 004°23'0 0.0
2018-Feb-03 12:24N 51°17' E 004°23'0 0.0
2018-Feb-03 12:00N 51°17' E 004°23'0 0.0
2018-Feb-03 11:30N 51°17' E 004°23'0 0.0
2018-Feb-03 10:57N 51°17' E 004°23'0 0.0
2018-Feb-03 10:30N 51°17' E 004°23'0 0.0
2018-Feb-03 10:00N 51°17' E 004°23'0 0.0
2018-Feb-03 09:30N 51°17' E 004°23'0 0.0
2018-Feb-03 09:00N 51°17' E 004°23'0 0.0
2018-Feb-03 08:30N 51°17' E 004°23'0 0.0
2018-Feb-03 08:00N 51°17' E 004°23'0 0.0
2018-Feb-03 06:30N 51°17' E 004°23'0 0.0
2018-Feb-03 06:00N 51°17' E 004°23'0 0.0
2018-Feb-03 05:24N 51°17' E 004°23'0 0.0
2018-Feb-03 05:00N 51°17' E 004°23'0 0.0
2018-Feb-03 04:00N 51°17' E 004°23'0 0.0
2018-Feb-03 03:30N 51°17' E 004°23'0 0.0
2018-Feb-03 02:00N 51°17' E 004°23'0 0.0
2018-Feb-03 01:30N 51°17' E 004°23'0 0.0
2018-Feb-03 01:00N 51°17' E 004°23'0 0.0
2018-Feb-03 00:30N 51°17' E 004°23'0 0.0
2018-Feb-03 00:00N 51°17' E 004°23'0 0.0
2018-Feb-02 23:27N 51°17' E 004°23'0 0.0
2018-Feb-02 23:00N 51°17' E 004°23'0 0.0
2018-Feb-02 22:30N 51°17' E 004°23'0 0.0
2018-Feb-02 22:00N 51°17' E 004°23'0 0.0
2018-Feb-02 21:30N 51°17' E 004°23'0 0.0
2018-Feb-02 21:00N 51°17' E 004°23'0 0.0
2018-Feb-02 20:30N 51°17' E 004°23'0 0.0
2018-Feb-02 20:00N 51°17' E 004°23'0 0.0
2018-Feb-02 19:00N 51°17' E 004°23'0 0.0
2018-Feb-02 18:24N 51°17' E 004°23'0 0.0
2018-Feb-02 18:01N 51°17' E 004°23'2 3.6
2018-Feb-02 17:30N 51°18' E 004°20'3 6.7
2018-Feb-02 17:01N 51°21' E 004°18'1 1.0
2018-Feb-02 16:30N 51°21' E 004°17'1 1.3
2018-Feb-02 15:30N 51°21' E 004°15'1111.0
2018-Feb-02 14:30N 51°26' E 003°60'816.4
2018-Feb-02 14:00N 51°21' E 003°50'815.3
2018-Feb-02 13:30N 51°26' E 003°41'815.5
2018-Feb-02 13:01N 51°25' E 003°28'816.6
2018-Feb-02 12:31N 51°25' E 003°15'815.0
2018-Feb-02 12:00N 51°25' E 003°03'713.5
2018-Feb-02 11:30N 51°24' E 002°52'712.9
2018-Feb-02 10:57N 51°22' E 002°41'511.7
2018-Feb-02 10:29N 51°21' E 002°33'0 0.8
2018-Feb-02 09:58N 51°20' E 002°32'0 0.1
2018-Feb-02 09:28N 51°20' E 002°32'0 0.7
2018-Feb-02 08:58N 51°20' E 002°32'1 1.6
2018-Feb-02 08:29N 51°21' E 002°32'4 8.1
2018-Feb-02 07:59N 51°21' E 002°26'611.8
2018-Feb-02 07:30N 51°18' E 002°18'612.4
2018-Feb-02 07:01N 51°15' E 002°09'612.6
2018-Feb-02 06:30N 51°12' E 002°00'613.1
2018-Feb-02 06:00N 51°09' E 001°52'713.1
2018-Feb-02 05:31N 51°05' E 001°43'713.7
2018-Feb-02 05:00N 50°60' E 001°36'714.3
2018-Feb-02 04:30N 50°55' E 001°28'714.2
2018-Feb-02 04:00N 50°48' E 001°24'5513.7
2018-Feb-01 23:58N 50°21' E 000°08'715.3
2018-Feb-01 23:29N 50°19' W 000°03'816.0
2018-Feb-01 23:00N 50°17' W 000°15'2817.3
2018-Feb-01 21:23N 50°10' W 000°57'3418.2
2018-Feb-01 19:30N 50°01' W 001°48'917.4
2018-Feb-01 19:00N 49°59' W 002°02'3315.4
2018-Feb-01 16:53N 49°49' W 002°50'9912.0
2018-Feb-01 08:38N 48°58' W 005°01'211.5
2018-Feb-01 08:29N 48°58' W 005°04'1211.7
2018-Feb-01 07:30N 48°52' W 005°19'27 7.5
2018-Feb-01 03:53N 48°28' W 005°38'6 4.7
2018-Feb-01 02:38N 48°23' W 005°33'7 6.7
2018-Feb-01 01:38N 48°17' W 005°29'7 6.7
2018-Feb-01 00:39N 48°11' W 005°24'2 6.0
2018-Feb-01 00:20N 48°09' W 005°23'2 6.7
2018-Feb-01 00:01N 48°07' W 005°22'7 6.8
2018-Jan-31 22:59N 48°01' W 005°18'3 6.7
2018-Jan-31 22:30N 47°58' W 005°16'10 6.7
2018-Jan-31 21:00N 47°49' W 005°09'4 7.2
2018-Jan-31 20:31N 47°46' W 005°06'4 7.5
2018-Jan-31 20:00N 47°42' W 005°04'4 8.1
2018-Jan-31 19:30N 47°39' W 005°01'4210.3
2018-Jan-31 15:24N 47°01' W 004°33'  
Track history (hours):
 
Tides and Currents Weather Stations Pressure Air Temp Water Temp Dewpoint Dewpoint Depression Visibility Wind Speed Wind Dir Waves Ship Positions

Fagelgracht

Last reported at 2018-Feb-10 13:28 UTC. Time now 2018-Feb-24 18:17 UTC.
Position N 36°09' W 026°06'.
Warning: this ship's position is 14 days out of date.

Length 136 m; draft 9.1 m.

Type: Ship (hazmat cat A). MMSI: 246591000.

Date/timePositionNaut miles runAvg speedWind from/ knotsBaromVisibWave heightAir tempDewpointWater temp
2018-Feb-10 13:28N 36°09' W 026°06'714.5
2018-Feb-10 13:00N 36°13' W 026°00'714.6
2018-Feb-10 12:30N 36°17' W 025°53'714.5
2018-Feb-10 12:00N 36°22' W 025°46'714.4
2018-Feb-10 11:30N 36°27' W 025°39'714.7
2018-Feb-10 11:00N 36°31' W 025°32'714.5
2018-Feb-10 10:30N 36°36' W 025°25'714.5
2018-Feb-10 10:00N 36°40' W 025°18'714.3
2018-Feb-10 09:30N 36°45' W 025°11'714.5
2018-Feb-10 09:00N 36°49' W 025°04'714.8
2018-Feb-10 08:30N 36°54' W 024°57'714.4
2018-Feb-10 08:00N 36°58' W 024°50'714.7
2018-Feb-10 07:30N 37°03' W 024°43'714.8
2018-Feb-10 07:01N 37°08' W 024°35'714.6
2018-Feb-10 06:30N 37°12' W 024°28'714.7
2018-Feb-10 06:00N 37°16' W 024°21'714.8
2018-Feb-10 05:30N 37°21' W 024°14'714.9
2018-Feb-10 05:01N 37°26' W 024°06'714.7
2018-Feb-10 04:30N 37°30' W 023°59'714.6
2018-Feb-10 04:00N 37°35' W 023°52'714.3
2018-Feb-10 03:31N 37°40' W 023°45'714.3
2018-Feb-10 03:00N 37°44' W 023°38'714.7
2018-Feb-10 02:30N 37°49' W 023°31'714.4
2018-Feb-10 01:59N 37°54' W 023°23'714.3
2018-Feb-10 01:31N 37°58' W 023°17'714.3
2018-Feb-10 01:00N 38°02' W 023°09'714.3
2018-Feb-10 00:30N 38°06' W 023°02'714.1
2018-Feb-10 00:00N 38°11' W 022°55'714.4
2018-Feb-09 23:30N 38°15' W 022°48'814.2
2018-Feb-09 22:56N 38°20' W 022°40'314.0
2018-Feb-09 22:43N 38°22' W 022°37'  
2018-Feb-06 15:08N 49°48' W 003°26'315.1
2018-Feb-06 14:56N 49°49' W 003°22'1214.7
2018-Feb-06 14:07N 49°55' W 003°06'1513.6
2018-Feb-06 13:00N 50°01' W 002°44'812.7
2018-Feb-06 12:25N 50°03' W 002°33'512.1
2018-Feb-06 12:00N 50°04' W 002°25'1111.7
2018-Feb-06 11:06N 50°07' W 002°10'111.6
2018-Feb-06 11:00N 50°08' W 002°08'812.0
2018-Feb-06 10:18N 50°10' W 001°55'412.7
2018-Feb-06 09:58N 50°11' W 001°49'1313.6
2018-Feb-06 09:00N 50°15' W 001°30'4216.2
2018-Feb-06 06:23N 50°27' W 000°26'616.2
2018-Feb-06 06:00N 50°29' W 000°17'815.9
2018-Feb-06 05:30N 50°31' W 000°05'815.7
2018-Feb-06 05:00N 50°33' E 000°07'815.4
2018-Feb-06 04:30N 50°35' E 000°19'815.1
2018-Feb-06 04:00N 50°37' E 000°30'714.5
2018-Feb-06 03:30N 50°41' E 000°40'714.1
2018-Feb-06 03:00N 50°45' E 000°49'813.9
2018-Feb-06 02:27N 50°49' E 000°59'814.0
2018-Feb-06 01:55N 50°54' E 001°09'614.1
2018-Feb-06 01:29N 50°58' E 001°16'715.2
2018-Feb-06 01:00N 51°03' E 001°25'2617.1
2018-Feb-05 23:30N 51°20' E 001°55'713.3
2018-Feb-05 23:00N 51°24' E 002°04'714.8
2018-Feb-05 22:30N 51°21' E 002°15'815.3
2018-Feb-05 22:00N 51°22' E 002°27'815.4
2018-Feb-05 21:30N 51°23' E 002°39'712.7
2018-Feb-05 20:58N 51°22' E 002°50'715.0
2018-Feb-05 20:30N 51°24' E 003°01'715.0
2018-Feb-05 20:00N 51°25' E 003°13'815.6
2018-Feb-05 19:30N 51°25' E 003°25'816.0
2018-Feb-05 19:00N 51°25' E 003°38'714.8
2018-Feb-05 18:30N 51°21' E 003°48'612.5
2018-Feb-05 18:00N 51°24' E 003°57'3 6.4
2018-Feb-05 17:30N 51°24' E 004°02'4 8.7
2018-Feb-05 17:00N 51°22' E 004°09'4 7.8
2018-Feb-05 16:30N 51°21' E 004°15'2 3.7
2018-Feb-05 16:00N 51°21' E 004°17'0 0.1
2018-Feb-05 15:30N 51°21' E 004°17'5 4.6
2018-Feb-05 14:30N 51°17' E 004°21'1 1.6
2018-Feb-05 14:00N 51°17' E 004°23'0 0.0
2018-Feb-05 13:30N 51°17' E 004°23'0 0.0
2018-Feb-05 13:00N 51°17' E 004°23'0 0.0
2018-Feb-05 12:30N 51°17' E 004°23'0 0.0
2018-Feb-05 12:00N 51°17' E 004°23'0 0.0
2018-Feb-05 11:30N 51°17' E 004°23'0 0.0
2018-Feb-05 10:57N 51°17' E 004°23'0 0.0
2018-Feb-05 10:30N 51°17' E 004°23'0 0.0
2018-Feb-05 10:00N 51°17' E 004°23'0 0.0
2018-Feb-05 09:30N 51°17' E 004°23'0 0.0
2018-Feb-05 09:00N 51°17' E 004°23'0 0.0
2018-Feb-05 08:30N 51°17' E 004°23'0 0.0
2018-Feb-05 08:00N 51°17' E 004°23'0 0.0
2018-Feb-05 07:30N 51°17' E 004°23'0 0.0
2018-Feb-05 06:57N 51°17' E 004°23'0 0.0
2018-Feb-05 06:30N 51°17' E 004°23'0 0.0
2018-Feb-05 05:30N 51°17' E 004°23'0 0.0
2018-Feb-05 05:00N 51°17' E 004°23'0 0.0
2018-Feb-05 04:30N 51°17' E 004°23'0 0.0
2018-Feb-05 04:00N 51°17' E 004°23'0 0.0
2018-Feb-05 03:30N 51°17' E 004°23'0 0.0
2018-Feb-05 03:00N 51°17' E 004°23'0 0.0
2018-Feb-05 02:30N 51°17' E 004°23'0 0.0
2018-Feb-05 02:00N 51°17' E 004°23'0 0.0
2018-Feb-05 01:30N 51°17' E 004°23'0 0.0
2018-Feb-05 01:00N 51°17' E 004°23'0 0.0
2018-Feb-05 00:27N 51°17' E 004°23'0 0.0
2018-Feb-04 23:57N 51°17' E 004°23'0 0.0
2018-Feb-04 23:30N 51°17' E 004°23'0 0.0
2018-Feb-04 23:00N 51°17' E 004°23'0 0.0
2018-Feb-04 22:30N 51°17' E 004°23'0 0.0
2018-Feb-04 22:00N 51°17' E 004°23'0 0.0
2018-Feb-04 21:30N 51°17' E 004°23'0 0.0
2018-Feb-04 21:00N 51°17' E 004°23'0 0.0
2018-Feb-04 20:00N 51°17' E 004°23'0 0.0
2018-Feb-04 19:30N 51°17' E 004°23'0 0.0
2018-Feb-04 18:57N 51°17' E 004°23'0 0.0
2018-Feb-04 18:30N 51°17' E 004°23'0 0.0
2018-Feb-04 17:57N 51°17' E 004°23'0 0.0
2018-Feb-04 17:30N 51°17' E 004°23'0 0.0
2018-Feb-04 15:30N 51°17' E 004°23'0 0.0
2018-Feb-04 15:00N 51°17' E 004°23'0 0.1
2018-Feb-04 14:27N 51°17' E 004°23'0 0.4
2018-Feb-04 14:00N 51°17' E 004°23'0 0.0
2018-Feb-04 13:30N 51°17' E 004°23'0 0.0
2018-Feb-04 13:00N 51°17' E 004°23'0 0.0
2018-Feb-04 12:30N 51°17' E 004°23'0 0.0
2018-Feb-04 12:00N 51°17' E 004°23'0 0.0
2018-Feb-04 11:30N 51°17' E 004°23'0 0.0
2018-Feb-04 10:00N 51°17' E 004°23'0 0.0
2018-Feb-04 09:00N 51°17' E 004°23'0 0.0
2018-Feb-04 08:30N 51°17' E 004°23'0 0.0
2018-Feb-04 08:00N 51°17' E 004°23'0 0.0
2018-Feb-04 07:30N 51°17' E 004°23'0 0.0
2018-Feb-04 07:00N 51°17' E 004°23'0 0.0
2018-Feb-04 06:30N 51°17' E 004°23'0 0.0
2018-Feb-04 06:00N 51°17' E 004°23'0 0.0
2018-Feb-04 05:27N 51°17' E 004°23'0 0.0
2018-Feb-04 05:00N 51°17' E 004°23'0 0.0
2018-Feb-04 04:30N 51°17' E 004°23'0 0.0
2018-Feb-04 04:00N 51°17' E 004°23'0 0.0
2018-Feb-04 03:27N 51°17' E 004°23'0 0.0
2018-Feb-04 03:00N 51°17' E 004°23'0 0.0
2018-Feb-04 02:30N 51°17' E 004°23'0 0.0
2018-Feb-04 01:54N 51°17' E 004°23'0 0.0
2018-Feb-04 01:30N 51°17' E 004°23'0 0.0
2018-Feb-04 01:00N 51°17' E 004°23'0 0.0
2018-Feb-04 00:27N 51°17' E 004°23'0 0.0
2018-Feb-04 00:00N 51°17' E 004°23'0 0.0
2018-Feb-03 23:30N 51°17' E 004°23'0 0.0
2018-Feb-03 23:00N 51°17' E 004°23'0 0.0
2018-Feb-03 22:30N 51°17' E 004°23'0 0.0
2018-Feb-03 22:00N 51°17' E 004°23'0 0.0
2018-Feb-03 21:30N 51°17' E 004°23'0 0.0
2018-Feb-03 21:00N 51°17' E 004°23'0 0.0
2018-Feb-03 20:30N 51°17' E 004°23'0 0.0
2018-Feb-03 20:00N 51°17' E 004°23'0 0.0
2018-Feb-03 18:30N 51°17' E 004°23'0 0.0
2018-Feb-03 18:00N 51°17' E 004°23'0 0.0
2018-Feb-03 17:30N 51°17' E 004°23'0 0.0
2018-Feb-03 16:57N 51°17' E 004°23'0 0.0
2018-Feb-03 16:00N 51°17' E 004°23'0 0.0
2018-Feb-03 15:30N 51°17' E 004°23'0 0.0
2018-Feb-03 15:00N 51°17' E 004°23'0 0.0
2018-Feb-03 14:30N 51°17' E 004°23'0 0.0
2018-Feb-03 14:00N 51°17' E 004°23'0 0.0
2018-Feb-03 13:30N 51°17' E 004°23'0 0.0
2018-Feb-03 13:00N 51°17' E 004°23'0 0.0
2018-Feb-03 12:24N 51°17' E 004°23'0 0.0
2018-Feb-03 12:00N 51°17' E 004°23'0 0.0
2018-Feb-03 11:30N 51°17' E 004°23'0 0.0
2018-Feb-03 10:57N 51°17' E 004°23'0 0.0
2018-Feb-03 10:30N 51°17' E 004°23'0 0.0
2018-Feb-03 10:00N 51°17' E 004°23'0 0.0
2018-Feb-03 09:30N 51°17' E 004°23'0 0.0
2018-Feb-03 09:00N 51°17' E 004°23'0 0.0
2018-Feb-03 08:30N 51°17' E 004°23'0 0.0
2018-Feb-03 08:00N 51°17' E 004°23'0 0.0
2018-Feb-03 06:30N 51°17' E 004°23'0 0.0
2018-Feb-03 06:00N 51°17' E 004°23'0 0.0
2018-Feb-03 05:24N 51°17' E 004°23'0 0.0
2018-Feb-03 05:00N 51°17' E 004°23'0 0.0
2018-Feb-03 04:00N 51°17' E 004°23'0 0.0
2018-Feb-03 03:30N 51°17' E 004°23'0 0.0
2018-Feb-03 02:00N 51°17' E 004°23'0 0.0
2018-Feb-03 01:30N 51°17' E 004°23'0 0.0
2018-Feb-03 01:00N 51°17' E 004°23'0 0.0
2018-Feb-03 00:30N 51°17' E 004°23'0 0.0
2018-Feb-03 00:00N 51°17' E 004°23'0 0.0
2018-Feb-02 23:27N 51°17' E 004°23'0 0.0
2018-Feb-02 23:00N 51°17' E 004°23'0 0.0
2018-Feb-02 22:30N 51°17' E 004°23'0 0.0
2018-Feb-02 22:00N 51°17' E 004°23'0 0.0
2018-Feb-02 21:30N 51°17' E 004°23'0 0.0
2018-Feb-02 21:00N 51°17' E 004°23'0 0.0
2018-Feb-02 20:30N 51°17' E 004°23'0 0.0
2018-Feb-02 20:00N 51°17' E 004°23'0 0.0
2018-Feb-02 19:00N 51°17' E 004°23'0 0.0
2018-Feb-02 18:24N 51°17' E 004°23'0 0.0
2018-Feb-02 18:01N 51°17' E 004°23'2 3.6
2018-Feb-02 17:30N 51°18' E 004°20'3 6.7
2018-Feb-02 17:01N 51°21' E 004°18'1 1.0
2018-Feb-02 16:30N 51°21' E 004°17'1 1.3
2018-Feb-02 15:30N 51°21' E 004°15'1111.0
2018-Feb-02 14:30N 51°26' E 003°60'816.4
2018-Feb-02 14:00N 51°21' E 003°50'815.3
2018-Feb-02 13:30N 51°26' E 003°41'815.5
2018-Feb-02 13:01N 51°25' E 003°28'816.6
2018-Feb-02 12:31N 51°25' E 003°15'815.0
2018-Feb-02 12:00N 51°25' E 003°03'713.5
2018-Feb-02 11:30N 51°24' E 002°52'712.9
2018-Feb-02 10:57N 51°22' E 002°41'511.7
2018-Feb-02 10:29N 51°21' E 002°33'0 0.8
2018-Feb-02 09:58N 51°20' E 002°32'0 0.1
2018-Feb-02 09:28N 51°20' E 002°32'0 0.7
2018-Feb-02 08:58N 51°20' E 002°32'1 1.6
2018-Feb-02 08:29N 51°21' E 002°32'4 8.1
2018-Feb-02 07:59N 51°21' E 002°26'611.8
2018-Feb-02 07:30N 51°18' E 002°18'612.4
2018-Feb-02 07:01N 51°15' E 002°09'612.6
2018-Feb-02 06:30N 51°12' E 002°00'613.1
2018-Feb-02 06:00N 51°09' E 001°52'713.1
2018-Feb-02 05:31N 51°05' E 001°43'713.7
2018-Feb-02 05:00N 50°60' E 001°36'714.3
2018-Feb-02 04:30N 50°55' E 001°28'714.2
2018-Feb-02 04:00N 50°48' E 001°24'5513.7
2018-Feb-01 23:58N 50°21' E 000°08'715.3
2018-Feb-01 23:29N 50°19' W 000°03'816.0
2018-Feb-01 23:00N 50°17' W 000°15'2817.3
2018-Feb-01 21:23N 50°10' W 000°57'3418.2
2018-Feb-01 19:30N 50°01' W 001°48'917.4
2018-Feb-01 19:00N 49°59' W 002°02'3315.4
2018-Feb-01 16:53N 49°49' W 002°50'9912.0
2018-Feb-01 08:38N 48°58' W 005°01'211.5
2018-Feb-01 08:29N 48°58' W 005°04'1211.7
2018-Feb-01 07:30N 48°52' W 005°19'27 7.5
2018-Feb-01 03:53N 48°28' W 005°38'6 4.7
2018-Feb-01 02:38N 48°23' W 005°33'7 6.7
2018-Feb-01 01:38N 48°17' W 005°29'7 6.7
2018-Feb-01 00:39N 48°11' W 005°24'2 6.0
2018-Feb-01 00:20N 48°09' W 005°23'2 6.7
2018-Feb-01 00:01N 48°07' W 005°22'7 6.8
2018-Jan-31 22:59N 48°01' W 005°18'3 6.7
2018-Jan-31 22:30N 47°58' W 005°16'10 6.7
2018-Jan-31 21:00N 47°49' W 005°09'4 7.2
2018-Jan-31 20:31N 47°46' W 005°06'4 7.5
2018-Jan-31 20:00N 47°42' W 005°04'4 8.1
2018-Jan-31 19:30N 47°39' W 005°01'4210.3
2018-Jan-31 15:24N 47°01' W 004°33'  

Dump ship's entire track history